sensor_id;sensor_type;location;lat;lon;timestamp;P1;durP1;ratioP1;P2;durP2;ratioP2
56161;SDS011;42045;52.986;6.014;2023-02-15T00:01:08;54.75;;;36.60;;
56161;SDS011;42045;52.986;6.014;2023-02-15T00:03:35;48.20;;;35.25;;
56161;SDS011;42045;52.986;6.014;2023-02-15T00:06:01;52.72;;;38.45;;
56161;SDS011;42045;52.986;6.014;2023-02-15T00:08:27;49.10;;;36.60;;
56161;SDS011;42045;52.986;6.014;2023-02-15T00:10:53;46.85;;;35.65;;
56161;SDS011;42045;52.986;6.014;2023-02-15T00:13:27;76.55;;;42.17;;
56161;SDS011;42045;52.986;6.014;2023-02-15T00:15:53;72.90;;;46.30;;
56161;SDS011;42045;52.986;6.014;2023-02-15T00:18:18;72.25;;;47.28;;
56161;SDS011;42045;52.986;6.014;2023-02-15T00:20:44;94.30;;;49.90;;
56161;SDS011;42045;52.986;6.014;2023-02-15T00:23:09;67.90;;;47.03;;
56161;SDS011;42045;52.986;6.014;2023-02-15T00:25:35;68.20;;;45.92;;
56161;SDS011;42045;52.986;6.014;2023-02-15T00:28:01;58.60;;;43.08;;
56161;SDS011;42045;52.986;6.014;2023-02-15T00:30:26;60.03;;;42.42;;
56161;SDS011;42045;52.986;6.014;2023-02-15T00:32:52;55.97;;;40.50;;
56161;SDS011;42045;52.986;6.014;2023-02-15T00:35:17;63.22;;;42.10;;
56161;SDS011;42045;52.986;6.014;2023-02-15T00:37:43;56.35;;;39.55;;
56161;SDS011;42045;52.986;6.014;2023-02-15T00:40:09;52.83;;;39.90;;
56161;SDS011;42045;52.986;6.014;2023-02-15T00:42:35;60.38;;;43.50;;
56161;SDS011;42045;52.986;6.014;2023-02-15T00:45:00;66.43;;;44.08;;
56161;SDS011;42045;52.986;6.014;2023-02-15T00:47:26;65.88;;;45.10;;
56161;SDS011;42045;52.986;6.014;2023-02-15T00:49:51;77.13;;;47.05;;
56161;SDS011;42045;52.986;6.014;2023-02-15T00:52:17;83.25;;;50.53;;
56161;SDS011;42045;52.986;6.014;2023-02-15T00:54:43;106.00;;;52.63;;
56161;SDS011;42045;52.986;6.014;2023-02-15T00:57:08;73.63;;;45.95;;
56161;SDS011;42045;52.986;6.014;2023-02-15T00:59:34;69.72;;;45.40;;
56161;SDS011;42045;52.986;6.014;2023-02-15T01:01:59;161.52;;;50.45;;
56161;SDS011;42045;52.986;6.014;2023-02-15T01:04:25;87.40;;;46.92;;
56161;SDS011;42045;52.986;6.014;2023-02-15T01:06:51;168.95;;;50.40;;
56161;SDS011;42045;52.986;6.014;2023-02-15T01:09:16;88.32;;;43.38;;
56161;SDS011;42045;52.986;6.014;2023-02-15T01:11:42;134.98;;;49.15;;
56161;SDS011;42045;52.986;6.014;2023-02-15T01:14:08;91.68;;;43.55;;
56161;SDS011;42045;52.986;6.014;2023-02-15T01:16:33;54.58;;;41.80;;
56161;SDS011;42045;52.986;6.014;2023-02-15T01:18:59;62.63;;;42.08;;
56161;SDS011;42045;52.986;6.014;2023-02-15T01:21:27;58.40;;;42.53;;
56161;SDS011;42045;52.986;6.014;2023-02-15T01:23:53;54.22;;;41.33;;
56161;SDS011;42045;52.986;6.014;2023-02-15T01:26:18;55.25;;;40.47;;
56161;SDS011;42045;52.986;6.014;2023-02-15T01:28:44;59.05;;;41.85;;
56161;SDS011;42045;52.986;6.014;2023-02-15T01:31:12;61.60;;;44.30;;
56161;SDS011;42045;52.986;6.014;2023-02-15T01:33:40;58.22;;;43.47;;
56161;SDS011;42045;52.986;6.014;2023-02-15T01:36:06;70.85;;;46.00;;
56161;SDS011;42045;52.986;6.014;2023-02-15T01:38:32;61.85;;;43.67;;
56161;SDS011;42045;52.986;6.014;2023-02-15T01:40:59;56.35;;;41.10;;
56161;SDS011;42045;52.986;6.014;2023-02-15T01:43:45;67.20;;;44.08;;
56161;SDS011;42045;52.986;6.014;2023-02-15T01:46:13;64.95;;;43.92;;
56161;SDS011;42045;52.986;6.014;2023-02-15T01:48:43;65.38;;;43.97;;
56161;SDS011;42045;52.986;6.014;2023-02-15T01:51:11;62.08;;;43.65;;
56161;SDS011;42045;52.986;6.014;2023-02-15T01:53:38;64.32;;;45.70;;
56161;SDS011;42045;52.986;6.014;2023-02-15T01:56:17;69.35;;;44.55;;
56161;SDS011;42045;52.986;6.014;2023-02-15T01:58:50;73.82;;;48.75;;
56161;SDS011;42045;52.986;6.014;2023-02-15T02:01:18;85.40;;;49.80;;
56161;SDS011;42045;52.986;6.014;2023-02-15T02:03:59;100.90;;;51.22;;
56161;SDS011;42045;52.986;6.014;2023-02-15T02:06:48;186.90;;;52.25;;
56161;SDS011;42045;52.986;6.014;2023-02-15T02:09:15;113.28;;;48.15;;
56161;SDS011;42045;52.986;6.014;2023-02-15T02:11:42;87.32;;;47.33;;
56161;SDS011;42045;52.986;6.014;2023-02-15T02:14:11;101.18;;;44.80;;
56161;SDS011;42045;52.986;6.014;2023-02-15T02:27:47;161.00;;;50.45;;
56161;SDS011;42045;52.986;6.014;2023-02-15T02:36:02;139.40;;;48.80;;
56161;SDS011;42045;52.986;6.014;2023-02-15T02:39:00;297.63;;;53.10;;
56161;SDS011;42045;52.986;6.014;2023-02-15T02:41:36;241.10;;;52.05;;
56161;SDS011;42045;52.986;6.014;2023-02-15T02:44:29;94.82;;;49.70;;
56161;SDS011;42045;52.986;6.014;2023-02-15T02:47:12;82.75;;;44.95;;
56161;SDS011;42045;52.986;6.014;2023-02-15T02:50:04;85.55;;;47.55;;
56161;SDS011;42045;52.986;6.014;2023-02-15T02:55:13;74.85;;;47.72;;
56161;SDS011;42045;52.986;6.014;2023-02-15T02:57:49;80.47;;;48.55;;
56161;SDS011;42045;52.986;6.014;2023-02-15T03:00:51;96.47;;;46.60;;
56161;SDS011;42045;52.986;6.014;2023-02-15T03:03:28;90.82;;;49.20;;
56161;SDS011;42045;52.986;6.014;2023-02-15T03:05:58;128.18;;;51.38;;
56161;SDS011;42045;52.986;6.014;2023-02-15T03:08:28;108.68;;;51.80;;
56161;SDS011;42045;52.986;6.014;2023-02-15T03:11:02;111.30;;;50.22;;
56161;SDS011;42045;52.986;6.014;2023-02-15T03:13:29;164.40;;;53.47;;
56161;SDS011;42045;52.986;6.014;2023-02-15T03:15:55;89.05;;;51.40;;
56161;SDS011;42045;52.986;6.014;2023-02-15T03:18:43;116.80;;;48.60;;
56161;SDS011;42045;52.986;6.014;2023-02-15T03:21:19;143.63;;;54.17;;
56161;SDS011;42045;52.986;6.014;2023-02-15T03:23:50;117.45;;;53.55;;
56161;SDS011;42045;52.986;6.014;2023-02-15T03:26:18;82.90;;;50.67;;
56161;SDS011;42045;52.986;6.014;2023-02-15T03:28:46;78.38;;;48.78;;
56161;SDS011;42045;52.986;6.014;2023-02-15T03:31:15;82.00;;;45.40;;
56161;SDS011;42045;52.986;6.014;2023-02-15T03:34:16;75.45;;;44.58;;
56161;SDS011;42045;52.986;6.014;2023-02-15T03:36:47;67.10;;;41.13;;
56161;SDS011;42045;52.986;6.014;2023-02-15T03:41:52;81.75;;;42.75;;
56161;SDS011;42045;52.986;6.014;2023-02-15T03:44:28;127.43;;;47.90;;
56161;SDS011;42045;52.986;6.014;2023-02-15T03:47:06;84.75;;;44.25;;
56161;SDS011;42045;52.986;6.014;2023-02-15T03:52:11;132.32;;;44.33;;
56161;SDS011;42045;52.986;6.014;2023-02-15T03:54:39;223.15;;;49.35;;
56161;SDS011;42045;52.986;6.014;2023-02-15T03:57:10;126.32;;;46.58;;
56161;SDS011;42045;52.986;6.014;2023-02-15T03:59:58;86.85;;;43.28;;
56161;SDS011;42045;52.986;6.014;2023-02-15T04:02:47;77.47;;;43.83;;
56161;SDS011;42045;52.986;6.014;2023-02-15T04:05:35;77.35;;;47.33;;
56161;SDS011;42045;52.986;6.014;2023-02-15T04:08:01;170.23;;;52.08;;
56161;SDS011;42045;52.986;6.014;2023-02-15T04:10:27;168.98;;;52.45;;
56161;SDS011;42045;52.986;6.014;2023-02-15T04:13:12;237.60;;;51.60;;
56161;SDS011;42045;52.986;6.014;2023-02-15T04:15:37;216.52;;;53.10;;
56161;SDS011;42045;52.986;6.014;2023-02-15T04:18:21;146.00;;;48.88;;
56161;SDS011;42045;52.986;6.014;2023-02-15T04:21:06;195.32;;;50.15;;
56161;SDS011;42045;52.986;6.014;2023-02-15T04:23:50;68.20;;;42.55;;
56161;SDS011;42045;52.986;6.014;2023-02-15T04:26:34;102.90;;;45.63;;
56161;SDS011;42045;52.986;6.014;2023-02-15T04:29:00;105.60;;;43.80;;
56161;SDS011;42045;52.986;6.014;2023-02-15T04:31:26;128.35;;;46.08;;
56161;SDS011;42045;52.986;6.014;2023-02-15T04:33:51;95.18;;;40.20;;
56161;SDS011;42045;52.986;6.014;2023-02-15T04:36:17;87.85;;;41.53;;
56161;SDS011;42045;52.986;6.014;2023-02-15T04:38:42;152.82;;;42.85;;
56161;SDS011;42045;52.986;6.014;2023-02-15T04:41:08;131.38;;;44.58;;
56161;SDS011;42045;52.986;6.014;2023-02-15T04:43:35;181.05;;;43.90;;
56161;SDS011;42045;52.986;6.014;2023-02-15T04:46:01;102.85;;;44.03;;
56161;SDS011;42045;52.986;6.014;2023-02-15T04:48:26;70.80;;;40.20;;
56161;SDS011;42045;52.986;6.014;2023-02-15T04:50:52;69.63;;;42.05;;
56161;SDS011;42045;52.986;6.014;2023-02-15T04:53:18;63.55;;;42.20;;
56161;SDS011;42045;52.986;6.014;2023-02-15T04:55:43;66.40;;;43.35;;
56161;SDS011;42045;52.986;6.014;2023-02-15T04:58:09;67.50;;;46.17;;
56161;SDS011;42045;52.986;6.014;2023-02-15T05:00:35;68.78;;;44.97;;
56161;SDS011;42045;52.986;6.014;2023-02-15T05:03:00;68.05;;;44.40;;
56161;SDS011;42045;52.986;6.014;2023-02-15T05:05:26;61.78;;;43.72;;
56161;SDS011;42045;52.986;6.014;2023-02-15T05:07:52;72.18;;;45.65;;
56161;SDS011;42045;52.986;6.014;2023-02-15T05:10:17;91.53;;;50.35;;
56161;SDS011;42045;52.986;6.014;2023-02-15T05:12:43;119.45;;;50.70;;
56161;SDS011;42045;52.986;6.014;2023-02-15T05:15:09;80.18;;;49.47;;
56161;SDS011;42045;52.986;6.014;2023-02-15T05:17:34;83.38;;;50.75;;
56161;SDS011;42045;52.986;6.014;2023-02-15T05:20:00;76.35;;;48.28;;
56161;SDS011;42045;52.986;6.014;2023-02-15T05:22:26;78.63;;;48.15;;
56161;SDS011;42045;52.986;6.014;2023-02-15T05:24:51;84.95;;;49.35;;
56161;SDS011;42045;52.986;6.014;2023-02-15T05:27:55;191.30;;;57.25;;
56161;SDS011;42045;52.986;6.014;2023-02-15T05:30:40;236.48;;;57.35;;
56161;SDS011;42045;52.986;6.014;2023-02-15T05:33:06;216.57;;;58.10;;
56161;SDS011;42045;52.986;6.014;2023-02-15T05:35:32;151.52;;;56.95;;
56161;SDS011;42045;52.986;6.014;2023-02-15T05:37:59;81.22;;;49.45;;
56161;SDS011;42045;52.986;6.014;2023-02-15T05:40:24;85.30;;;52.38;;
56161;SDS011;42045;52.986;6.014;2023-02-15T05:42:50;88.47;;;54.17;;
56161;SDS011;42045;52.986;6.014;2023-02-15T05:45:16;136.20;;;55.13;;
56161;SDS011;42045;52.986;6.014;2023-02-15T05:47:42;228.85;;;60.95;;
56161;SDS011;42045;52.986;6.014;2023-02-15T05:50:07;314.35;;;67.15;;
56161;SDS011;42045;52.986;6.014;2023-02-15T05:52:34;210.15;;;60.45;;
56161;SDS011;42045;52.986;6.014;2023-02-15T05:54:59;149.70;;;53.30;;
56161;SDS011;42045;52.986;6.014;2023-02-15T05:57:25;206.98;;;58.70;;
56161;SDS011;42045;52.986;6.014;2023-02-15T05:59:51;334.40;;;66.05;;
56161;SDS011;42045;52.986;6.014;2023-02-15T06:02:17;345.23;;;66.72;;
56161;SDS011;42045;52.986;6.014;2023-02-15T06:04:43;426.50;;;74.47;;
56161;SDS011;42045;52.986;6.014;2023-02-15T06:07:09;313.92;;;65.55;;
56161;SDS011;42045;52.986;6.014;2023-02-15T06:09:34;238.75;;;66.53;;
56161;SDS011;42045;52.986;6.014;2023-02-15T06:12:00;274.52;;;67.57;;
56161;SDS011;42045;52.986;6.014;2023-02-15T06:14:26;142.50;;;59.78;;
56161;SDS011;42045;52.986;6.014;2023-02-15T06:16:51;149.32;;;57.88;;
56161;SDS011;42045;52.986;6.014;2023-02-15T06:19:17;123.68;;;59.22;;
56161;SDS011;42045;52.986;6.014;2023-02-15T06:21:43;132.07;;;62.42;;
56161;SDS011;42045;52.986;6.014;2023-02-15T06:24:09;181.27;;;58.88;;
56161;SDS011;42045;52.986;6.014;2023-02-15T06:26:35;128.32;;;55.30;;
56161;SDS011;42045;52.986;6.014;2023-02-15T06:29:01;191.68;;;56.97;;
56161;SDS011;42045;52.986;6.014;2023-02-15T06:31:26;189.07;;;56.60;;
56161;SDS011;42045;52.986;6.014;2023-02-15T06:33:52;107.93;;;53.90;;
56161;SDS011;42045;52.986;6.014;2023-02-15T06:36:25;99.10;;;53.85;;
56161;SDS011;42045;52.986;6.014;2023-02-15T06:38:51;107.57;;;51.90;;
56161;SDS011;42045;52.986;6.014;2023-02-15T06:41:17;99.10;;;53.28;;
56161;SDS011;42045;52.986;6.014;2023-02-15T06:43:42;101.30;;;55.15;;
56161;SDS011;42045;52.986;6.014;2023-02-15T06:46:08;102.82;;;54.85;;
56161;SDS011;42045;52.986;6.014;2023-02-15T06:48:33;96.32;;;50.78;;
56161;SDS011;42045;52.986;6.014;2023-02-15T06:50:59;94.75;;;53.22;;
56161;SDS011;42045;52.986;6.014;2023-02-15T06:53:24;80.43;;;50.30;;
56161;SDS011;42045;52.986;6.014;2023-02-15T06:55:50;91.07;;;51.95;;
56161;SDS011;42045;52.986;6.014;2023-02-15T06:58:16;86.43;;;51.58;;
56161;SDS011;42045;52.986;6.014;2023-02-15T07:00:41;97.97;;;54.63;;
56161;SDS011;42045;52.986;6.014;2023-02-15T07:03:07;95.63;;;53.38;;
56161;SDS011;42045;52.986;6.014;2023-02-15T07:05:33;89.85;;;51.88;;
56161;SDS011;42045;52.986;6.014;2023-02-15T07:07:59;91.72;;;52.22;;
56161;SDS011;42045;52.986;6.014;2023-02-15T07:10:26;97.30;;;51.28;;
56161;SDS011;42045;52.986;6.014;2023-02-15T07:12:53;91.10;;;51.55;;
56161;SDS011;42045;52.986;6.014;2023-02-15T07:15:19;90.75;;;51.35;;
56161;SDS011;42045;52.986;6.014;2023-02-15T07:17:48;87.82;;;50.83;;
56161;SDS011;42045;52.986;6.014;2023-02-15T07:20:15;86.05;;;51.70;;
56161;SDS011;42045;52.986;6.014;2023-02-15T07:22:43;94.10;;;52.55;;
56161;SDS011;42045;52.986;6.014;2023-02-15T07:25:10;89.30;;;51.72;;
56161;SDS011;42045;52.986;6.014;2023-02-15T07:27:37;86.07;;;51.63;;
56161;SDS011;42045;52.986;6.014;2023-02-15T07:30:04;95.68;;;52.65;;
56161;SDS011;42045;52.986;6.014;2023-02-15T07:32:31;91.20;;;52.17;;
56161;SDS011;42045;52.986;6.014;2023-02-15T07:34:58;93.15;;;52.15;;
56161;SDS011;42045;52.986;6.014;2023-02-15T07:37:24;87.35;;;52.88;;
56161;SDS011;42045;52.986;6.014;2023-02-15T07:39:50;92.60;;;53.60;;
56161;SDS011;42045;52.986;6.014;2023-02-15T07:42:15;78.13;;;49.55;;
56161;SDS011;42045;52.986;6.014;2023-02-15T07:44:42;87.45;;;52.03;;
56161;SDS011;42045;52.986;6.014;2023-02-15T07:47:08;83.97;;;50.00;;
56161;SDS011;42045;52.986;6.014;2023-02-15T07:49:34;82.45;;;51.17;;
56161;SDS011;42045;52.986;6.014;2023-02-15T07:52:03;78.88;;;49.10;;
56161;SDS011;42045;52.986;6.014;2023-02-15T07:54:29;74.05;;;46.75;;
56161;SDS011;42045;52.986;6.014;2023-02-15T07:56:54;77.93;;;48.38;;
56161;SDS011;42045;52.986;6.014;2023-02-15T07:59:20;85.18;;;48.90;;
56161;SDS011;42045;52.986;6.014;2023-02-15T08:01:46;80.93;;;50.33;;
56161;SDS011;42045;52.986;6.014;2023-02-15T08:04:11;74.28;;;46.80;;
56161;SDS011;42045;52.986;6.014;2023-02-15T08:06:37;83.97;;;49.45;;
56161;SDS011;42045;52.986;6.014;2023-02-15T08:09:04;79.57;;;47.58;;
56161;SDS011;42045;52.986;6.014;2023-02-15T08:11:32;75.60;;;45.45;;
56161;SDS011;42045;52.986;6.014;2023-02-15T08:19:23;69.13;;;43.75;;
56161;SDS011;42045;52.986;6.014;2023-02-15T08:21:50;79.57;;;47.28;;
56161;SDS011;42045;52.986;6.014;2023-02-15T08:24:19;75.28;;;47.45;;
56161;SDS011;42045;52.986;6.014;2023-02-15T08:26:46;82.60;;;49.13;;
56161;SDS011;42045;52.986;6.014;2023-02-15T08:29:13;75.50;;;46.90;;
56161;SDS011;42045;52.986;6.014;2023-02-15T08:31:39;72.10;;;46.60;;
56161;SDS011;42045;52.986;6.014;2023-02-15T08:34:06;79.22;;;50.10;;
56161;SDS011;42045;52.986;6.014;2023-02-15T08:36:34;82.90;;;48.03;;
56161;SDS011;42045;52.986;6.014;2023-02-15T08:39:01;75.43;;;46.95;;
56161;SDS011;42045;52.986;6.014;2023-02-15T08:41:28;79.32;;;49.40;;
56161;SDS011;42045;52.986;6.014;2023-02-15T08:43:59;78.00;;;48.55;;
56161;SDS011;42045;52.986;6.014;2023-02-15T08:46:29;76.63;;;48.22;;
56161;SDS011;42045;52.986;6.014;2023-02-15T08:48:56;80.88;;;48.70;;
56161;SDS011;42045;52.986;6.014;2023-02-15T08:51:25;77.70;;;46.78;;
56161;SDS011;42045;52.986;6.014;2023-02-15T08:53:57;75.13;;;47.67;;
56161;SDS011;42045;52.986;6.014;2023-02-15T08:56:26;71.80;;;46.25;;
56161;SDS011;42045;52.986;6.014;2023-02-15T08:58:53;77.40;;;47.25;;
56161;SDS011;42045;52.986;6.014;2023-02-15T09:01:22;77.05;;;49.10;;
56161;SDS011;42045;52.986;6.014;2023-02-15T09:03:50;77.57;;;48.38;;
56161;SDS011;42045;52.986;6.014;2023-02-15T09:06:20;77.82;;;48.95;;
56161;SDS011;42045;52.986;6.014;2023-02-15T09:08:47;74.72;;;49.40;;
56161;SDS011;42045;52.986;6.014;2023-02-15T09:11:17;77.63;;;51.40;;
56161;SDS011;42045;52.986;6.014;2023-02-15T09:13:53;84.13;;;50.88;;
56161;SDS011;42045;52.986;6.014;2023-02-15T09:16:20;84.43;;;52.72;;
56161;SDS011;42045;52.986;6.014;2023-02-15T09:18:47;82.07;;;54.33;;
56161;SDS011;42045;52.986;6.014;2023-02-15T09:21:15;85.53;;;54.75;;
56161;SDS011;42045;52.986;6.014;2023-02-15T09:23:42;85.88;;;53.38;;
56161;SDS011;42045;52.986;6.014;2023-02-15T09:26:11;88.80;;;52.50;;
56161;SDS011;42045;52.986;6.014;2023-02-15T09:28:39;86.40;;;57.03;;
56161;SDS011;42045;52.986;6.014;2023-02-15T09:33:32;88.97;;;55.22;;
56161;SDS011;42045;52.986;6.014;2023-02-15T09:35:59;76.38;;;53.03;;
56161;SDS011;42045;52.986;6.014;2023-02-15T09:38:25;85.13;;;54.90;;
56161;SDS011;42045;52.986;6.014;2023-02-15T09:40:55;85.53;;;54.40;;
56161;SDS011;42045;52.986;6.014;2023-02-15T09:48:53;89.13;;;57.58;;
56161;SDS011;42045;52.986;6.014;2023-02-15T09:51:38;85.72;;;55.75;;
56161;SDS011;42045;52.986;6.014;2023-02-15T09:57:26;86.93;;;56.05;;
56161;SDS011;42045;52.986;6.014;2023-02-15T10:00:06;86.32;;;56.15;;
56161;SDS011;42045;52.986;6.014;2023-02-15T10:08:10;78.90;;;54.72;;
56161;SDS011;42045;52.986;6.014;2023-02-15T10:27:47;80.40;;;53.45;;
56161;SDS011;42045;52.986;6.014;2023-02-15T10:30:15;75.38;;;53.38;;
56161;SDS011;42045;52.986;6.014;2023-02-15T10:37:55;79.60;;;53.53;;
56161;SDS011;42045;52.986;6.014;2023-02-15T10:54:43;75.28;;;52.78;;
56161;SDS011;42045;52.986;6.014;2023-02-15T10:59:56;80.13;;;55.65;;
56161;SDS011;42045;52.986;6.014;2023-02-15T11:07:51;73.80;;;53.72;;
56161;SDS011;42045;52.986;6.014;2023-02-15T11:10:35;82.78;;;57.17;;
56161;SDS011;42045;52.986;6.014;2023-02-15T11:13:26;77.68;;;55.63;;
56161;SDS011;42045;52.986;6.014;2023-02-15T11:18:37;70.47;;;51.50;;
56161;SDS011;42045;52.986;6.014;2023-02-15T11:21:17;65.72;;;50.55;;
56161;SDS011;42045;52.986;6.014;2023-02-15T11:23:47;67.40;;;52.63;;
56161;SDS011;42045;52.986;6.014;2023-02-15T11:26:15;74.78;;;50.10;;
56161;SDS011;42045;52.986;6.014;2023-02-15T11:28:49;73.88;;;51.58;;
56161;SDS011;42045;52.986;6.014;2023-02-15T11:31:21;67.47;;;48.20;;
56161;SDS011;42045;52.986;6.014;2023-02-15T11:33:51;64.75;;;48.67;;
56161;SDS011;42045;52.986;6.014;2023-02-15T11:36:21;69.60;;;49.03;;
56161;SDS011;42045;52.986;6.014;2023-02-15T11:38:52;72.15;;;51.15;;
56161;SDS011;42045;52.986;6.014;2023-02-15T11:41:35;67.78;;;48.03;;
56161;SDS011;42045;52.986;6.014;2023-02-15T11:46:41;67.70;;;45.38;;
56161;SDS011;42045;52.986;6.014;2023-02-15T11:49:21;61.80;;;45.88;;
56161;SDS011;42045;52.986;6.014;2023-02-15T11:51:47;68.88;;;45.53;;
56161;SDS011;42045;52.986;6.014;2023-02-15T11:54:16;62.78;;;43.63;;
56161;SDS011;42045;52.986;6.014;2023-02-15T11:56:44;57.42;;;40.88;;
56161;SDS011;42045;52.986;6.014;2023-02-15T11:59:11;55.78;;;40.97;;
56161;SDS011;42045;52.986;6.014;2023-02-15T12:01:44;57.13;;;42.95;;
56161;SDS011;42045;52.986;6.014;2023-02-15T12:06:54;62.40;;;43.05;;
56161;SDS011;42045;52.986;6.014;2023-02-15T12:12:19;54.92;;;39.45;;
56161;SDS011;42045;52.986;6.014;2023-02-15T12:14:49;53.45;;;39.33;;
56161;SDS011;42045;52.986;6.014;2023-02-15T12:17:23;55.63;;;40.83;;
56161;SDS011;42045;52.986;6.014;2023-02-15T12:20:01;60.37;;;44.20;;
56161;SDS011;42045;52.986;6.014;2023-02-15T12:22:51;65.05;;;44.60;;
56161;SDS011;42045;52.986;6.014;2023-02-15T12:25:29;60.33;;;42.30;;
56161;SDS011;42045;52.986;6.014;2023-02-15T12:28:02;58.88;;;44.03;;
56161;SDS011;42045;52.986;6.014;2023-02-15T12:30:30;61.10;;;43.38;;
56161;SDS011;42045;52.986;6.014;2023-02-15T12:33:05;56.17;;;43.20;;
56161;SDS011;42045;52.986;6.014;2023-02-15T12:35:42;60.20;;;41.75;;
56161;SDS011;42045;52.986;6.014;2023-02-15T12:40:34;60.50;;;43.20;;
56161;SDS011;42045;52.986;6.014;2023-02-15T12:43:01;57.63;;;41.65;;
56161;SDS011;42045;52.986;6.014;2023-02-15T12:45:33;59.42;;;42.83;;
56161;SDS011;42045;52.986;6.014;2023-02-15T12:48:08;58.65;;;41.67;;
56161;SDS011;42045;52.986;6.014;2023-02-15T12:50:34;54.42;;;39.60;;
56161;SDS011;42045;52.986;6.014;2023-02-15T12:53:34;56.33;;;41.83;;
56161;SDS011;42045;52.986;6.014;2023-02-15T12:55:59;54.47;;;39.53;;
56161;SDS011;42045;52.986;6.014;2023-02-15T12:58:28;60.15;;;41.20;;
56161;SDS011;42045;52.986;6.014;2023-02-15T13:01:19;63.47;;;41.33;;
56161;SDS011;42045;52.986;6.014;2023-02-15T13:04:06;55.25;;;40.00;;
56161;SDS011;42045;52.986;6.014;2023-02-15T13:06:48;51.22;;;39.20;;
56161;SDS011;42045;52.986;6.014;2023-02-15T13:11:45;54.53;;;38.38;;
56161;SDS011;42045;52.986;6.014;2023-02-15T13:14:21;50.63;;;38.85;;
56161;SDS011;42045;52.986;6.014;2023-02-15T13:16:56;54.70;;;38.10;;
56161;SDS011;42045;52.986;6.014;2023-02-15T13:19:33;52.63;;;38.15;;
56161;SDS011;42045;52.986;6.014;2023-02-15T13:22:06;52.10;;;38.25;;
56161;SDS011;42045;52.986;6.014;2023-02-15T13:27:10;50.70;;;37.42;;
56161;SDS011;42045;52.986;6.014;2023-02-15T13:29:41;47.55;;;37.53;;
56161;SDS011;42045;52.986;6.014;2023-02-15T13:32:32;51.33;;;37.67;;
56161;SDS011;42045;52.986;6.014;2023-02-15T13:35:02;55.20;;;38.80;;
56161;SDS011;42045;52.986;6.014;2023-02-15T13:39:58;52.75;;;39.60;;
56161;SDS011;42045;52.986;6.014;2023-02-15T13:51:00;50.53;;;39.17;;
56161;SDS011;42045;52.986;6.014;2023-02-15T14:04:10;49.80;;;36.50;;
56161;SDS011;42045;52.986;6.014;2023-02-15T14:26:27;52.22;;;37.45;;
56161;SDS011;42045;52.986;6.014;2023-02-15T14:31:39;48.88;;;38.38;;
56161;SDS011;42045;52.986;6.014;2023-02-15T14:34:19;57.08;;;42.30;;
56161;SDS011;42045;52.986;6.014;2023-02-15T14:36:51;50.75;;;39.30;;
56161;SDS011;42045;52.986;6.014;2023-02-15T14:45:02;54.85;;;40.75;;
56161;SDS011;42045;52.986;6.014;2023-02-15T14:47:52;57.60;;;40.70;;
56161;SDS011;42045;52.986;6.014;2023-02-15T14:55:45;54.08;;;41.10;;
56161;SDS011;42045;52.986;6.014;2023-02-15T14:58:12;53.53;;;39.13;;
56161;SDS011;42045;52.986;6.014;2023-02-15T15:00:41;55.30;;;40.97;;
56161;SDS011;42045;52.986;6.014;2023-02-15T15:03:23;48.45;;;39.10;;
56161;SDS011;42045;52.986;6.014;2023-02-15T15:05:54;50.43;;;38.00;;
56161;SDS011;42045;52.986;6.014;2023-02-15T15:10:57;45.80;;;34.88;;
56161;SDS011;42045;52.986;6.014;2023-02-15T15:13:55;51.92;;;38.72;;
56161;SDS011;42045;52.986;6.014;2023-02-15T15:18:54;52.97;;;36.78;;
56161;SDS011;42045;52.986;6.014;2023-02-15T15:40:29;51.58;;;37.55;;
56161;SDS011;42045;52.986;6.014;2023-02-15T15:43:30;59.22;;;40.42;;
56161;SDS011;42045;52.986;6.014;2023-02-15T15:46:18;54.42;;;39.50;;
56161;SDS011;42045;52.986;6.014;2023-02-15T15:49:27;55.63;;;39.08;;
56161;SDS011;42045;52.986;6.014;2023-02-15T15:51:56;49.53;;;37.65;;
56161;SDS011;42045;52.986;6.014;2023-02-15T15:54:26;55.47;;;39.08;;
56161;SDS011;42045;52.986;6.014;2023-02-15T15:57:03;55.38;;;39.33;;
56161;SDS011;42045;52.986;6.014;2023-02-15T15:59:30;54.78;;;39.40;;
56161;SDS011;42045;52.986;6.014;2023-02-15T16:02:06;53.47;;;38.15;;
56161;SDS011;42045;52.986;6.014;2023-02-15T16:04:36;55.25;;;39.92;;
56161;SDS011;42045;52.986;6.014;2023-02-15T16:07:20;61.85;;;44.63;;
56161;SDS011;42045;52.986;6.014;2023-02-15T16:12:30;59.20;;;43.80;;
56161;SDS011;42045;52.986;6.014;2023-02-15T16:14:58;63.78;;;44.65;;
56161;SDS011;42045;52.986;6.014;2023-02-15T16:17:38;61.58;;;42.63;;
56161;SDS011;42045;52.986;6.014;2023-02-15T16:22:43;61.67;;;41.80;;
56161;SDS011;42045;52.986;6.014;2023-02-15T16:25:20;56.63;;;42.60;;
56161;SDS011;42045;52.986;6.014;2023-02-15T16:27:51;56.10;;;43.05;;
56161;SDS011;42045;52.986;6.014;2023-02-15T16:35:32;66.75;;;45.92;;
56161;SDS011;42045;52.986;6.014;2023-02-15T16:37:59;64.05;;;44.35;;
56161;SDS011;42045;52.986;6.014;2023-02-15T16:43:05;63.63;;;44.78;;
56161;SDS011;42045;52.986;6.014;2023-02-15T16:45:37;63.70;;;44.17;;
56161;SDS011;42045;52.986;6.014;2023-02-15T16:48:05;68.38;;;46.50;;
56161;SDS011;42045;52.986;6.014;2023-02-15T16:50:37;68.50;;;49.13;;
56161;SDS011;42045;52.986;6.014;2023-02-15T16:53:04;73.10;;;51.08;;
56161;SDS011;42045;52.986;6.014;2023-02-15T16:55:35;66.25;;;48.05;;
56161;SDS011;42045;52.986;6.014;2023-02-15T16:58:04;67.22;;;45.10;;
56161;SDS011;42045;52.986;6.014;2023-02-15T17:00:33;67.72;;;47.53;;
56161;SDS011;42045;52.986;6.014;2023-02-15T17:03:03;68.22;;;47.05;;
56161;SDS011;42045;52.986;6.014;2023-02-15T17:05:32;67.85;;;45.67;;
56161;SDS011;42045;52.986;6.014;2023-02-15T17:08:17;60.60;;;44.92;;
56161;SDS011;42045;52.986;6.014;2023-02-15T17:11:03;64.10;;;46.35;;
56161;SDS011;42045;52.986;6.014;2023-02-15T17:13:29;73.72;;;48.55;;
56161;SDS011;42045;52.986;6.014;2023-02-15T17:18:27;72.47;;;50.40;;
56161;SDS011;42045;52.986;6.014;2023-02-15T17:23:43;69.57;;;46.42;;
56161;SDS011;42045;52.986;6.014;2023-02-15T17:26:14;74.75;;;50.28;;
56161;SDS011;42045;52.986;6.014;2023-02-15T17:31:24;73.40;;;48.67;;
56161;SDS011;42045;52.986;6.014;2023-02-15T17:33:53;73.88;;;50.28;;
56161;SDS011;42045;52.986;6.014;2023-02-15T17:36:21;72.22;;;50.80;;
56161;SDS011;42045;52.986;6.014;2023-02-15T17:43:49;82.88;;;57.92;;
56161;SDS011;42045;52.986;6.014;2023-02-15T17:46:15;83.28;;;56.53;;
56161;SDS011;42045;52.986;6.014;2023-02-15T17:48:45;81.97;;;56.83;;
56161;SDS011;42045;52.986;6.014;2023-02-15T17:51:13;73.50;;;52.22;;
56161;SDS011;42045;52.986;6.014;2023-02-15T17:53:39;77.60;;;57.08;;
56161;SDS011;42045;52.986;6.014;2023-02-15T17:56:05;72.03;;;52.45;;
56161;SDS011;42045;52.986;6.014;2023-02-15T17:58:35;80.70;;;54.03;;
56161;SDS011;42045;52.986;6.014;2023-02-15T18:01:03;74.82;;;54.50;;
56161;SDS011;42045;52.986;6.014;2023-02-15T18:03:51;73.03;;;53.38;;
56161;SDS011;42045;52.986;6.014;2023-02-15T18:06:36;73.72;;;52.25;;
56161;SDS011;42045;52.986;6.014;2023-02-15T18:09:23;65.40;;;47.40;;
56161;SDS011;42045;52.986;6.014;2023-02-15T18:12:21;71.57;;;49.55;;
56161;SDS011;42045;52.986;6.014;2023-02-15T18:14:49;68.72;;;47.78;;